sensor_id;sensor_type;location;lat;lon;timestamp;P1;durP1;ratioP1;P2;durP2;ratioP2
63394;SDS011;49531;-34.520;150.798;2023-08-08T00:00:37;4.30;;;1.25;;
63394;SDS011;49531;-34.520;150.798;2023-08-08T00:03:04;1.52;;;1.15;;
63394;SDS011;49531;-34.520;150.798;2023-08-08T00:05:31;2.88;;;1.30;;
63394;SDS011;49531;-34.520;150.798;2023-08-08T00:07:58;1.98;;;1.00;;
63394;SDS011;49531;-34.520;150.798;2023-08-08T00:10:25;1.67;;;1.10;;
63394;SDS011;49531;-34.520;150.798;2023-08-08T00:12:52;1.77;;;1.20;;
63394;SDS011;49531;-34.520;150.798;2023-08-08T00:15:19;1.52;;;1.20;;
63394;SDS011;49531;-34.520;150.798;2023-08-08T00:17:46;1.30;;;1.10;;
63394;SDS011;49531;-34.520;150.798;2023-08-08T00:20:13;1.50;;;1.20;;
63394;SDS011;49531;-34.520;150.798;2023-08-08T00:22:41;1.73;;;1.20;;
63394;SDS011;49531;-34.520;150.798;2023-08-08T00:25:08;2.17;;;1.20;;
63394;SDS011;49531;-34.520;150.798;2023-08-08T00:27:35;3.58;;;1.40;;
63394;SDS011;49531;-34.520;150.798;2023-08-08T00:30:08;2.42;;;1.48;;
63394;SDS011;49531;-34.520;150.798;2023-08-08T00:32:35;2.70;;;1.40;;
63394;SDS011;49531;-34.520;150.798;2023-08-08T00:35:03;2.88;;;1.50;;
63394;SDS011;49531;-34.520;150.798;2023-08-08T00:37:30;2.38;;;1.30;;
63394;SDS011;49531;-34.520;150.798;2023-08-08T00:39:57;2.03;;;1.40;;
63394;SDS011;49531;-34.520;150.798;2023-08-08T00:42:24;2.20;;;1.50;;
63394;SDS011;49531;-34.520;150.798;2023-08-08T00:44:51;3.13;;;1.58;;
63394;SDS011;49531;-34.520;150.798;2023-08-08T00:47:18;2.80;;;1.30;;
63394;SDS011;49531;-34.520;150.798;2023-08-08T00:49:45;1.70;;;1.40;;
63394;SDS011;49531;-34.520;150.798;2023-08-08T00:52:14;1.40;;;1.30;;
63394;SDS011;49531;-34.520;150.798;2023-08-08T00:54:41;2.05;;;1.40;;
63394;SDS011;49531;-34.520;150.798;2023-08-08T00:57:09;3.03;;;1.58;;
63394;SDS011;49531;-34.520;150.798;2023-08-08T00:59:36;2.78;;;1.50;;
63394;SDS011;49531;-34.520;150.798;2023-08-08T01:02:03;1.98;;;1.33;;
63394;SDS011;49531;-34.520;150.798;2023-08-08T01:04:30;2.08;;;1.33;;
63394;SDS011;49531;-34.520;150.798;2023-08-08T01:07:03;2.63;;;1.45;;
63394;SDS011;49531;-34.520;150.798;2023-08-08T01:09:50;1.67;;;1.40;;
63394;SDS011;49531;-34.520;150.798;2023-08-08T01:12:29;3.28;;;1.42;;
63394;SDS011;49531;-34.520;150.798;2023-08-08T01:14:57;1.63;;;1.30;;
63394;SDS011;49531;-34.520;150.798;2023-08-08T01:17:24;1.63;;;1.52;;
63394;SDS011;49531;-34.520;150.798;2023-08-08T01:19:52;3.03;;;1.70;;
63394;SDS011;49531;-34.520;150.798;2023-08-08T01:22:27;4.32;;;1.58;;
63394;SDS011;49531;-34.520;150.798;2023-08-08T01:25:01;3.10;;;1.50;;
63394;SDS011;49531;-34.520;150.798;2023-08-08T01:27:30;2.15;;;1.70;;
63394;SDS011;49531;-34.520;150.798;2023-08-08T01:29:57;3.20;;;1.90;;
63394;SDS011;49531;-34.520;150.798;2023-08-08T01:32:24;2.17;;;1.60;;
63394;SDS011;49531;-34.520;150.798;2023-08-08T01:34:51;3.35;;;1.60;;
63394;SDS011;49531;-34.520;150.798;2023-08-08T01:37:20;3.53;;;1.50;;
63394;SDS011;49531;-34.520;150.798;2023-08-08T01:39:57;2.60;;;1.60;;
63394;SDS011;49531;-34.520;150.798;2023-08-08T01:42:26;2.90;;;1.80;;
63394;SDS011;49531;-34.520;150.798;2023-08-08T01:44:54;4.07;;;1.67;;
63394;SDS011;49531;-34.520;150.798;2023-08-08T01:47:22;3.53;;;1.70;;
63394;SDS011;49531;-34.520;150.798;2023-08-08T01:49:49;3.13;;;1.60;;
63394;SDS011;49531;-34.520;150.798;2023-08-08T01:52:17;3.78;;;1.65;;
63394;SDS011;49531;-34.520;150.798;2023-08-08T01:54:44;4.43;;;1.80;;
63394;SDS011;49531;-34.520;150.798;2023-08-08T01:57:11;3.42;;;1.90;;
63394;SDS011;49531;-34.520;150.798;2023-08-08T01:59:38;2.15;;;1.55;;
63394;SDS011;49531;-34.520;150.798;2023-08-08T02:02:05;4.13;;;1.73;;
63394;SDS011;49531;-34.520;150.798;2023-08-08T02:04:32;2.63;;;1.67;;
63394;SDS011;49531;-34.520;150.798;2023-08-08T02:07:00;2.42;;;1.70;;
63394;SDS011;49531;-34.520;150.798;2023-08-08T02:09:27;2.90;;;1.83;;
63394;SDS011;49531;-34.520;150.798;2023-08-08T02:11:54;2.30;;;1.58;;
63394;SDS011;49531;-34.520;150.798;2023-08-08T02:14:21;2.40;;;1.60;;
63394;SDS011;49531;-34.520;150.798;2023-08-08T02:16:48;3.90;;;1.73;;
63394;SDS011;49531;-34.520;150.798;2023-08-08T02:19:15;1.90;;;1.70;;
63394;SDS011;49531;-34.520;150.798;2023-08-08T02:21:42;5.13;;;1.70;;
63394;SDS011;49531;-34.520;150.798;2023-08-08T02:24:11;2.88;;;1.70;;
63394;SDS011;49531;-34.520;150.798;2023-08-08T02:26:38;2.88;;;1.50;;
63394;SDS011;49531;-34.520;150.798;2023-08-08T02:29:05;2.58;;;1.80;;
63394;SDS011;49531;-34.520;150.798;2023-08-08T02:31:32;1.73;;;1.60;;
63394;SDS011;49531;-34.520;150.798;2023-08-08T02:33:59;3.08;;;1.67;;
63394;SDS011;49531;-34.520;150.798;2023-08-08T02:36:26;2.72;;;1.80;;
63394;SDS011;49531;-34.520;150.798;2023-08-08T02:38:53;2.25;;;1.70;;
63394;SDS011;49531;-34.520;150.798;2023-08-08T02:41:20;2.70;;;1.80;;
63394;SDS011;49531;-34.520;150.798;2023-08-08T02:43:47;3.35;;;1.60;;
63394;SDS011;49531;-34.520;150.798;2023-08-08T02:46:15;6.43;;;1.65;;
63394;SDS011;49531;-34.520;150.798;2023-08-08T02:48:42;2.70;;;1.70;;
63394;SDS011;49531;-34.520;150.798;2023-08-08T02:51:09;3.22;;;1.67;;
63394;SDS011;49531;-34.520;150.798;2023-08-08T02:53:36;1.85;;;1.60;;
63394;SDS011;49531;-34.520;150.798;2023-08-08T02:56:03;2.00;;;1.52;;
63394;SDS011;49531;-34.520;150.798;2023-08-08T02:58:31;2.63;;;1.52;;
63394;SDS011;49531;-34.520;150.798;2023-08-08T03:00:58;1.95;;;1.75;;
63394;SDS011;49531;-34.520;150.798;2023-08-08T03:03:25;3.13;;;1.92;;
63394;SDS011;49531;-34.520;150.798;2023-08-08T03:05:52;3.17;;;1.70;;
63394;SDS011;49531;-34.520;150.798;2023-08-08T03:08:19;3.10;;;1.63;;
63394;SDS011;49531;-34.520;150.798;2023-08-08T03:10:46;4.15;;;1.98;;
63394;SDS011;49531;-34.520;150.798;2023-08-08T03:13:13;2.17;;;1.75;;
63394;SDS011;49531;-34.520;150.798;2023-08-08T03:15:40;5.88;;;1.73;;
63394;SDS011;49531;-34.520;150.798;2023-08-08T03:18:07;2.92;;;1.70;;
63394;SDS011;49531;-34.520;150.798;2023-08-08T03:20:34;2.50;;;1.60;;
63394;SDS011;49531;-34.520;150.798;2023-08-08T03:23:01;3.30;;;1.80;;
63394;SDS011;49531;-34.520;150.798;2023-08-08T03:25:29;3.55;;;1.65;;
63394;SDS011;49531;-34.520;150.798;2023-08-08T03:27:56;2.50;;;1.65;;
63394;SDS011;49531;-34.520;150.798;2023-08-08T03:30:23;2.85;;;1.80;;
63394;SDS011;49531;-34.520;150.798;2023-08-08T03:32:50;4.90;;;1.70;;
63394;SDS011;49531;-34.520;150.798;2023-08-08T03:35:17;2.17;;;1.65;;
63394;SDS011;49531;-34.520;150.798;2023-08-08T03:37:44;3.08;;;1.73;;
63394;SDS011;49531;-34.520;150.798;2023-08-08T03:40:12;6.05;;;1.95;;
63394;SDS011;49531;-34.520;150.798;2023-08-08T03:42:40;1.60;;;1.50;;
63394;SDS011;49531;-34.520;150.798;2023-08-08T03:45:07;3.83;;;1.75;;
63394;SDS011;49531;-34.520;150.798;2023-08-08T03:47:35;2.38;;;1.70;;
63394;SDS011;49531;-34.520;150.798;2023-08-08T03:50:02;1.98;;;1.70;;
63394;SDS011;49531;-34.520;150.798;2023-08-08T03:52:30;6.00;;;1.85;;
63394;SDS011;49531;-34.520;150.798;2023-08-08T03:54:59;6.28;;;2.00;;
63394;SDS011;49531;-34.520;150.798;2023-08-08T03:57:27;7.40;;;2.03;;
63394;SDS011;49531;-34.520;150.798;2023-08-08T03:59:54;3.30;;;1.60;;
63394;SDS011;49531;-34.520;150.798;2023-08-08T04:02:21;3.15;;;1.80;;
63394;SDS011;49531;-34.520;150.798;2023-08-08T04:04:48;3.53;;;1.80;;
63394;SDS011;49531;-34.520;150.798;2023-08-08T04:07:15;5.75;;;1.90;;
63394;SDS011;49531;-34.520;150.798;2023-08-08T04:09:42;2.47;;;1.58;;
63394;SDS011;49531;-34.520;150.798;2023-08-08T04:12:09;3.60;;;1.83;;
63394;SDS011;49531;-34.520;150.798;2023-08-08T04:14:36;3.05;;;1.80;;
63394;SDS011;49531;-34.520;150.798;2023-08-08T04:17:03;3.75;;;1.73;;
63394;SDS011;49531;-34.520;150.798;2023-08-08T04:19:31;3.80;;;1.60;;
63394;SDS011;49531;-34.520;150.798;2023-08-08T04:21:58;3.13;;;1.60;;
63394;SDS011;49531;-34.520;150.798;2023-08-08T04:24:25;3.65;;;1.60;;
63394;SDS011;49531;-34.520;150.798;2023-08-08T04:26:53;5.28;;;1.63;;
63394;SDS011;49531;-34.520;150.798;2023-08-08T04:29:20;3.00;;;1.58;;
63394;SDS011;49531;-34.520;150.798;2023-08-08T04:31:47;3.35;;;1.50;;
63394;SDS011;49531;-34.520;150.798;2023-08-08T04:34:14;5.93;;;1.75;;
63394;SDS011;49531;-34.520;150.798;2023-08-08T04:36:42;10.45;;;1.70;;
63394;SDS011;49531;-34.520;150.798;2023-08-08T04:39:09;7.78;;;1.85;;
63394;SDS011;49531;-34.520;150.798;2023-08-08T04:41:36;4.57;;;1.70;;
63394;SDS011;49531;-34.520;150.798;2023-08-08T04:44:03;2.15;;;1.52;;
63394;SDS011;49531;-34.520;150.798;2023-08-08T04:46:30;2.95;;;1.63;;
63394;SDS011;49531;-34.520;150.798;2023-08-08T04:48:58;2.42;;;1.40;;
63394;SDS011;49531;-34.520;150.798;2023-08-08T04:51:25;3.47;;;1.50;;
63394;SDS011;49531;-34.520;150.798;2023-08-08T04:53:52;4.10;;;1.58;;
63394;SDS011;49531;-34.520;150.798;2023-08-08T04:56:19;3.10;;;1.50;;
63394;SDS011;49531;-34.520;150.798;2023-08-08T04:58:46;3.58;;;1.60;;
63394;SDS011;49531;-34.520;150.798;2023-08-08T05:01:13;3.10;;;1.45;;
63394;SDS011;49531;-34.520;150.798;2023-08-08T05:03:43;4.03;;;1.60;;
63394;SDS011;49531;-34.520;150.798;2023-08-08T05:06:10;3.03;;;1.60;;
63394;SDS011;49531;-34.520;150.798;2023-08-08T05:08:40;1.60;;;1.42;;
63394;SDS011;49531;-34.520;150.798;2023-08-08T05:11:07;2.85;;;1.50;;
63394;SDS011;49531;-34.520;150.798;2023-08-08T05:13:34;3.95;;;1.60;;
63394;SDS011;49531;-34.520;150.798;2023-08-08T05:16:01;1.70;;;1.60;;
63394;SDS011;49531;-34.520;150.798;2023-08-08T05:18:31;2.75;;;1.55;;
63394;SDS011;49531;-34.520;150.798;2023-08-08T05:20:58;1.90;;;1.38;;
63394;SDS011;49531;-34.520;150.798;2023-08-08T05:23:25;3.67;;;1.55;;
63394;SDS011;49531;-34.520;150.798;2023-08-08T05:25:55;2.72;;;1.58;;
63394;SDS011;49531;-34.520;150.798;2023-08-08T05:28:23;3.13;;;1.38;;
63394;SDS011;49531;-34.520;150.798;2023-08-08T05:30:50;3.83;;;1.60;;
63394;SDS011;49531;-34.520;150.798;2023-08-08T05:33:17;2.45;;;1.40;;
63394;SDS011;49531;-34.520;150.798;2023-08-08T05:35:44;2.05;;;1.50;;
63394;SDS011;49531;-34.520;150.798;2023-08-08T05:38:11;2.83;;;1.50;;
63394;SDS011;49531;-34.520;150.798;2023-08-08T05:40:38;3.10;;;1.60;;
63394;SDS011;49531;-34.520;150.798;2023-08-08T05:43:05;2.78;;;1.30;;
63394;SDS011;49531;-34.520;150.798;2023-08-08T05:45:33;2.33;;;1.42;;
63394;SDS011;49531;-34.520;150.798;2023-08-08T05:48:00;2.30;;;1.42;;
63394;SDS011;49531;-34.520;150.798;2023-08-08T05:50:27;2.05;;;1.38;;
63394;SDS011;49531;-34.520;150.798;2023-08-08T05:52:55;1.50;;;1.40;;
63394;SDS011;49531;-34.520;150.798;2023-08-08T05:55:22;2.55;;;1.40;;
63394;SDS011;49531;-34.520;150.798;2023-08-08T05:57:49;1.40;;;1.30;;
63394;SDS011;49531;-34.520;150.798;2023-08-08T06:00:16;3.50;;;1.30;;
63394;SDS011;49531;-34.520;150.798;2023-08-08T06:02:44;2.45;;;1.50;;
63394;SDS011;49531;-34.520;150.798;2023-08-08T06:05:11;2.60;;;1.50;;
63394;SDS011;49531;-34.520;150.798;2023-08-08T06:07:38;1.33;;;1.20;;
63394;SDS011;49531;-34.520;150.798;2023-08-08T06:10:06;2.30;;;1.20;;
63394;SDS011;49531;-34.520;150.798;2023-08-08T06:12:33;2.00;;;1.50;;
63394;SDS011;49531;-34.520;150.798;2023-08-08T06:15:00;2.03;;;1.30;;
63394;SDS011;49531;-34.520;150.798;2023-08-08T06:17:29;1.83;;;1.20;;
63394;SDS011;49531;-34.520;150.798;2023-08-08T06:19:56;3.17;;;1.23;;
63394;SDS011;49531;-34.520;150.798;2023-08-08T06:22:23;6.20;;;1.40;;
63394;SDS011;49531;-34.520;150.798;2023-08-08T06:24:50;3.17;;;1.40;;
63394;SDS011;49531;-34.520;150.798;2023-08-08T06:27:18;1.90;;;1.42;;
63394;SDS011;49531;-34.520;150.798;2023-08-08T06:29:49;2.33;;;1.50;;
63394;SDS011;49531;-34.520;150.798;2023-08-08T06:32:16;1.20;;;1.10;;
63394;SDS011;49531;-34.520;150.798;2023-08-08T06:34:43;2.45;;;1.30;;
63394;SDS011;49531;-34.520;150.798;2023-08-08T06:37:10;3.00;;;1.30;;
63394;SDS011;49531;-34.520;150.798;2023-08-08T06:39:37;2.03;;;1.30;;
63394;SDS011;49531;-34.520;150.798;2023-08-08T06:42:05;2.67;;;1.30;;
63394;SDS011;49531;-34.520;150.798;2023-08-08T06:44:32;1.73;;;1.40;;
63394;SDS011;49531;-34.520;150.798;2023-08-08T06:47:07;4.53;;;1.50;;
63394;SDS011;49531;-34.520;150.798;2023-08-08T06:49:34;2.20;;;1.33;;
63394;SDS011;49531;-34.520;150.798;2023-08-08T06:52:01;3.70;;;1.40;;
63394;SDS011;49531;-34.520;150.798;2023-08-08T06:54:28;2.33;;;1.48;;
63394;SDS011;49531;-34.520;150.798;2023-08-08T06:56:55;2.92;;;1.40;;
63394;SDS011;49531;-34.520;150.798;2023-08-08T06:59:23;1.33;;;1.23;;
63394;SDS011;49531;-34.520;150.798;2023-08-08T07:01:50;2.30;;;1.20;;
63394;SDS011;49531;-34.520;150.798;2023-08-08T07:04:17;2.00;;;1.20;;
63394;SDS011;49531;-34.520;150.798;2023-08-08T07:06:44;3.10;;;1.30;;
63394;SDS011;49531;-34.520;150.798;2023-08-08T07:09:11;3.42;;;1.30;;
63394;SDS011;49531;-34.520;150.798;2023-08-08T07:11:40;2.00;;;1.30;;
63394;SDS011;49531;-34.520;150.798;2023-08-08T07:14:07;1.25;;;1.10;;
63394;SDS011;49531;-34.520;150.798;2023-08-08T07:16:34;2.20;;;1.30;;
63394;SDS011;49531;-34.520;150.798;2023-08-08T07:19:01;1.33;;;1.20;;
63394;SDS011;49531;-34.520;150.798;2023-08-08T07:21:28;1.90;;;1.00;;
63394;SDS011;49531;-34.520;150.798;2023-08-08T07:23:56;1.55;;;1.20;;
63394;SDS011;49531;-34.520;150.798;2023-08-08T07:26:23;2.58;;;1.30;;
63394;SDS011;49531;-34.520;150.798;2023-08-08T07:28:50;3.03;;;1.25;;
63394;SDS011;49531;-34.520;150.798;2023-08-08T07:31:18;2.13;;;1.17;;
63394;SDS011;49531;-34.520;150.798;2023-08-08T07:33:45;3.13;;;1.30;;
63394;SDS011;49531;-34.520;150.798;2023-08-08T07:36:12;2.25;;;1.33;;
63394;SDS011;49531;-34.520;150.798;2023-08-08T07:38:39;1.48;;;1.30;;
63394;SDS011;49531;-34.520;150.798;2023-08-08T07:41:06;1.50;;;1.38;;
63394;SDS011;49531;-34.520;150.798;2023-08-08T07:43:33;2.00;;;1.30;;
63394;SDS011;49531;-34.520;150.798;2023-08-08T07:46:00;2.50;;;1.20;;
63394;SDS011;49531;-34.520;150.798;2023-08-08T07:48:27;1.80;;;1.30;;
63394;SDS011;49531;-34.520;150.798;2023-08-08T07:50:55;1.45;;;1.30;;
63394;SDS011;49531;-34.520;150.798;2023-08-08T07:53:22;1.45;;;1.20;;
63394;SDS011;49531;-34.520;150.798;2023-08-08T07:55:49;3.72;;;1.38;;
63394;SDS011;49531;-34.520;150.798;2023-08-08T07:58:16;2.28;;;1.40;;
63394;SDS011;49531;-34.520;150.798;2023-08-08T08:00:43;1.30;;;1.20;;
63394;SDS011;49531;-34.520;150.798;2023-08-08T08:03:10;4.00;;;1.10;;
63394;SDS011;49531;-34.520;150.798;2023-08-08T08:05:37;2.13;;;1.35;;
63394;SDS011;49531;-34.520;150.798;2023-08-08T08:08:04;2.00;;;1.20;;
63394;SDS011;49531;-34.520;150.798;2023-08-08T08:10:31;2.95;;;1.25;;
63394;SDS011;49531;-34.520;150.798;2023-08-08T08:12:59;2.53;;;1.38;;
63394;SDS011;49531;-34.520;150.798;2023-08-08T08:15:26;1.50;;;1.40;;
63394;SDS011;49531;-34.520;150.798;2023-08-08T08:17:53;2.28;;;1.30;;
63394;SDS011;49531;-34.520;150.798;2023-08-08T08:20:20;2.10;;;1.33;;
63394;SDS011;49531;-34.520;150.798;2023-08-08T08:22:48;1.52;;;1.30;;
63394;SDS011;49531;-34.520;150.798;2023-08-08T08:25:15;1.63;;;1.20;;
63394;SDS011;49531;-34.520;150.798;2023-08-08T08:27:42;1.35;;;1.25;;
63394;SDS011;49531;-34.520;150.798;2023-08-08T08:30:09;1.83;;;1.17;;
63394;SDS011;49531;-34.520;150.798;2023-08-08T08:32:38;4.63;;;1.45;;
63394;SDS011;49531;-34.520;150.798;2023-08-08T08:35:06;1.50;;;1.40;;
63394;SDS011;49531;-34.520;150.798;2023-08-08T08:37:34;2.15;;;1.50;;
63394;SDS011;49531;-34.520;150.798;2023-08-08T08:40:01;1.42;;;1.30;;
63394;SDS011;49531;-34.520;150.798;2023-08-08T08:42:30;1.40;;;1.30;;
63394;SDS011;49531;-34.520;150.798;2023-08-08T08:44:59;3.65;;;1.50;;
63394;SDS011;49531;-34.520;150.798;2023-08-08T08:47:30;2.88;;;1.60;;
63394;SDS011;49531;-34.520;150.798;2023-08-08T08:49:59;1.50;;;1.40;;
63394;SDS011;49531;-34.520;150.798;2023-08-08T08:52:28;1.60;;;1.50;;
63394;SDS011;49531;-34.520;150.798;2023-08-08T08:54:56;1.67;;;1.58;;
63394;SDS011;49531;-34.520;150.798;2023-08-08T08:57:23;2.47;;;1.63;;
63394;SDS011;49531;-34.520;150.798;2023-08-08T08:59:51;1.90;;;1.65;;
63394;SDS011;49531;-34.520;150.798;2023-08-08T09:02:18;1.50;;;1.40;;
63394;SDS011;49531;-34.520;150.798;2023-08-08T09:04:46;4.03;;;1.67;;
63394;SDS011;49531;-34.520;150.798;2023-08-08T09:07:13;2.42;;;1.80;;
63394;SDS011;49531;-34.520;150.798;2023-08-08T09:09:43;1.52;;;1.42;;
63394;SDS011;49531;-34.520;150.798;2023-08-08T09:12:10;1.77;;;1.40;;
63394;SDS011;49531;-34.520;150.798;2023-08-08T09:14:41;2.92;;;1.52;;
63394;SDS011;49531;-34.520;150.798;2023-08-08T09:17:22;3.08;;;1.55;;
63394;SDS011;49531;-34.520;150.798;2023-08-08T09:19:53;1.88;;;1.40;;
63394;SDS011;49531;-34.520;150.798;2023-08-08T09:22:21;2.92;;;1.50;;
63394;SDS011;49531;-34.520;150.798;2023-08-08T09:24:52;1.52;;;1.40;;
63394;SDS011;49531;-34.520;150.798;2023-08-08T09:27:19;1.83;;;1.58;;
63394;SDS011;49531;-34.520;150.798;2023-08-08T09:29:46;4.47;;;1.77;;
63394;SDS011;49531;-34.520;150.798;2023-08-08T09:32:19;2.38;;;1.48;;
63394;SDS011;49531;-34.520;150.798;2023-08-08T09:34:50;1.65;;;1.38;;
63394;SDS011;49531;-34.520;150.798;2023-08-08T09:37:18;3.90;;;1.40;;
63394;SDS011;49531;-34.520;150.798;2023-08-08T09:39:56;1.40;;;1.30;;
63394;SDS011;49531;-34.520;150.798;2023-08-08T09:42:25;2.90;;;1.58;;
63394;SDS011;49531;-34.520;150.798;2023-08-08T09:45:16;4.63;;;1.52;;
63394;SDS011;49531;-34.520;150.798;2023-08-08T09:47:45;1.50;;;1.40;;
63394;SDS011;49531;-34.520;150.798;2023-08-08T09:50:23;3.15;;;1.63;;
63394;SDS011;49531;-34.520;150.798;2023-08-08T09:52:53;2.33;;;1.58;;
63394;SDS011;49531;-34.520;150.798;2023-08-08T09:55:22;1.55;;;1.40;;
63394;SDS011;49531;-34.520;150.798;2023-08-08T09:57:49;1.58;;;1.27;;
63394;SDS011;49531;-34.520;150.798;2023-08-08T10:00:18;2.13;;;1.40;;
63394;SDS011;49531;-34.520;150.798;2023-08-08T10:02:46;3.55;;;1.60;;
63394;SDS011;49531;-34.520;150.798;2023-08-08T10:05:14;3.53;;;1.40;;
63394;SDS011;49531;-34.520;150.798;2023-08-08T10:07:41;2.33;;;1.30;;
63394;SDS011;49531;-34.520;150.798;2023-08-08T10:10:09;3.28;;;1.35;;
63394;SDS011;49531;-34.520;150.798;2023-08-08T10:12:37;3.13;;;1.40;;
63394;SDS011;49531;-34.520;150.798;2023-08-08T10:15:07;2.88;;;1.40;;
63394;SDS011;49531;-34.520;150.798;2023-08-08T10:17:37;1.73;;;1.40;;
63394;SDS011;49531;-34.520;150.798;2023-08-08T10:20:05;2.05;;;1.40;;
63394;SDS011;49531;-34.520;150.798;2023-08-08T10:22:37;2.50;;;1.40;;
63394;SDS011;49531;-34.520;150.798;2023-08-08T10:25:17;1.88;;;1.40;;
63394;SDS011;49531;-34.520;150.798;2023-08-08T10:27:49;1.60;;;1.40;;
63394;SDS011;49531;-34.520;150.798;2023-08-08T10:30:16;2.22;;;1.30;;
63394;SDS011;49531;-34.520;150.798;2023-08-08T10:32:44;1.73;;;1.38;;
63394;SDS011;49531;-34.520;150.798;2023-08-08T10:35:12;2.15;;;1.48;;
63394;SDS011;49531;-34.520;150.798;2023-08-08T10:37:40;1.75;;;1.40;;
63394;SDS011;49531;-34.520;150.798;2023-08-08T10:40:17;2.10;;;1.38;;
63394;SDS011;49531;-34.520;150.798;2023-08-08T10:42:45;4.10;;;1.67;;
63394;SDS011;49531;-34.520;150.798;2023-08-08T10:45:14;1.70;;;1.55;;
63394;SDS011;49531;-34.520;150.798;2023-08-08T10:47:42;1.83;;;1.60;;
63394;SDS011;49531;-34.520;150.798;2023-08-08T10:50:12;4.57;;;1.90;;
63394;SDS011;49531;-34.520;150.798;2023-08-08T10:52:53;3.65;;;2.30;;
63394;SDS011;49531;-34.520;150.798;2023-08-08T10:55:31;7.68;;;2.30;;
63394;SDS011;49531;-34.520;150.798;2023-08-08T10:58:06;2.58;;;2.10;;
63394;SDS011;49531;-34.520;150.798;2023-08-08T11:00:45;2.08;;;1.90;;
63394;SDS011;49531;-34.520;150.798;2023-08-08T11:03:14;4.25;;;2.10;;
63394;SDS011;49531;-34.520;150.798;2023-08-08T11:05:41;2.42;;;2.00;;
63394;SDS011;49531;-34.520;150.798;2023-08-08T11:08:12;2.17;;;1.98;;
63394;SDS011;49531;-34.520;150.798;2023-08-08T11:10:39;2.63;;;2.00;;
63394;SDS011;49531;-34.520;150.798;2023-08-08T11:13:07;3.25;;;2.00;;
63394;SDS011;49531;-34.520;150.798;2023-08-08T11:15:35;3.03;;;2.05;;
63394;SDS011;49531;-34.520;150.798;2023-08-08T11:18:03;2.80;;;2.10;;
63394;SDS011;49531;-34.520;150.798;2023-08-08T11:20:31;3.58;;;2.05;;
63394;SDS011;49531;-34.520;150.798;2023-08-08T11:22:59;2.65;;;2.00;;
63394;SDS011;49531;-34.520;150.798;2023-08-08T11:25:28;2.08;;;1.88;;
63394;SDS011;49531;-34.520;150.798;2023-08-08T11:27:57;2.78;;;1.92;;
63394;SDS011;49531;-34.520;150.798;2023-08-08T11:30:27;2.10;;;1.90;;
63394;SDS011;49531;-34.520;150.798;2023-08-08T11:32:55;2.85;;;1.98;;
63394;SDS011;49531;-34.520;150.798;2023-08-08T11:35:23;2.05;;;1.85;;
63394;SDS011;49531;-34.520;150.798;2023-08-08T11:37:54;3.20;;;2.15;;
63394;SDS011;49531;-34.520;150.798;2023-08-08T11:40:22;2.38;;;1.90;;
63394;SDS011;49531;-34.520;150.798;2023-08-08T11:42:55;2.75;;;1.83;;
63394;SDS011;49531;-34.520;150.798;2023-08-08T11:45:23;2.30;;;1.90;;
63394;SDS011;49531;-34.520;150.798;2023-08-08T11:47:52;2.17;;;1.90;;
63394;SDS011;49531;-34.520;150.798;2023-08-08T11:50:20;2.17;;;1.80;;
63394;SDS011;49531;-34.520;150.798;2023-08-08T11:52:50;2.10;;;1.90;;
63394;SDS011;49531;-34.520;150.798;2023-08-08T11:55:19;4.18;;;2.05;;
63394;SDS011;49531;-34.520;150.798;2023-08-08T11:57:48;3.42;;;1.90;;
63394;SDS011;49531;-34.520;150.798;2023-08-08T12:00:16;1.70;;;1.58;;
63394;SDS011;49531;-34.520;150.798;2023-08-08T12:02:43;3.35;;;1.80;;
63394;SDS011;49531;-34.520;150.798;2023-08-08T12:05:12;2.58;;;1.63;;
63394;SDS011;49531;-34.520;150.798;2023-08-08T12:07:47;2.83;;;1.70;;
63394;SDS011;49531;-34.520;150.798;2023-08-08T12:10:15;1.77;;;1.60;;
63394;SDS011;49531;-34.520;150.798;2023-08-08T12:12:44;3.05;;;1.70;;
63394;SDS011;49531;-34.520;150.798;2023-08-08T12:15:12;2.05;;;1.52;;
63394;SDS011;49531;-34.520;150.798;2023-08-08T12:17:39;2.17;;;1.70;;
63394;SDS011;49531;-34.520;150.798;2023-08-08T12:20:08;1.95;;;1.58;;
63394;SDS011;49531;-34.520;150.798;2023-08-08T12:22:35;2.75;;;1.70;;
63394;SDS011;49531;-34.520;150.798;2023-08-08T12:25:02;1.70;;;1.60;;
63394;SDS011;49531;-34.520;150.798;2023-08-08T12:27:30;2.03;;;1.60;;
63394;SDS011;49531;-34.520;150.798;2023-08-08T12:29:57;2.05;;;1.50;;
63394;SDS011;49531;-34.520;150.798;2023-08-08T12:32:25;1.73;;;1.63;;
63394;SDS011;49531;-34.520;150.798;2023-08-08T12:34:55;2.92;;;1.48;;
63394;SDS011;49531;-34.520;150.798;2023-08-08T12:37:22;1.83;;;1.50;;
63394;SDS011;49531;-34.520;150.798;2023-08-08T12:39:50;1.58;;;1.48;;
63394;SDS011;49531;-34.520;150.798;2023-08-08T12:42:18;1.83;;;1.60;;
63394;SDS011;49531;-34.520;150.798;2023-08-08T12:44:46;1.70;;;1.60;;
63394;SDS011;49531;-34.520;150.798;2023-08-08T12:47:14;1.83;;;1.50;;
63394;SDS011;49531;-34.520;150.798;2023-08-08T12:49:41;2.03;;;1.50;;
63394;SDS011;49531;-34.520;150.798;2023-08-08T12:52:08;2.05;;;1.60;;
63394;SDS011;49531;-34.520;150.798;2023-08-08T12:54:36;1.50;;;1.33;;
63394;SDS011;49531;-34.520;150.798;2023-08-08T12:57:03;1.40;;;1.30;;
63394;SDS011;49531;-34.520;150.798;2023-08-08T12:59:30;1.85;;;1.60;;
63394;SDS011;49531;-34.520;150.798;2023-08-08T13:01:57;2.45;;;1.55;;
63394;SDS011;49531;-34.520;150.798;2023-08-08T13:04:24;1.67;;;1.48;;
63394;SDS011;49531;-34.520;150.798;2023-08-08T13:06:54;1.40;;;1.30;;
63394;SDS011;49531;-34.520;150.798;2023-08-08T13:09:24;2.38;;;1.50;;
63394;SDS011;49531;-34.520;150.798;2023-08-08T13:11:51;1.90;;;1.30;;
63394;SDS011;49531;-34.520;150.798;2023-08-08T13:14:19;2.20;;;1.48;;
63394;SDS011;49531;-34.520;150.798;2023-08-08T13:16:46;2.30;;;1.40;;
63394;SDS011;49531;-34.520;150.798;2023-08-08T13:19:14;1.92;;;1.40;;
63394;SDS011;49531;-34.520;150.798;2023-08-08T13:21:45;1.60;;;1.38;;
63394;SDS011;49531;-34.520;150.798;2023-08-08T13:24:12;2.03;;;1.40;;
63394;SDS011;49531;-34.520;150.798;2023-08-08T13:26:39;1.67;;;1.40;;
63394;SDS011;49531;-34.520;150.798;2023-08-08T13:29:07;1.85;;;1.35;;
63394;SDS011;49531;-34.520;150.798;2023-08-08T13:31:34;1.55;;;1.42;;
63394;SDS011;49531;-34.520;150.798;2023-08-08T13:34:01;1.65;;;1.40;;
63394;SDS011;49531;-34.520;150.798;2023-08-08T13:36:29;1.50;;;1.40;;
63394;SDS011;49531;-34.520;150.798;2023-08-08T13:38:56;1.70;;;1.30;;
63394;SDS011;49531;-34.520;150.798;2023-08-08T13:41:24;1.50;;;1.40;;
63394;SDS011;49531;-34.520;150.798;2023-08-08T13:43:51;1.98;;;1.40;;
63394;SDS011;49531;-34.520;150.798;2023-08-08T13:46:19;1.92;;;1.40;;
63394;SDS011;49531;-34.520;150.798;2023-08-08T13:48:46;2.85;;;1.50;;
63394;SDS011;49531;-34.520;150.798;2023-08-08T13:51:13;2.65;;;1.40;;
63394;SDS011;49531;-34.520;150.798;2023-08-08T13:53:41;1.85;;;1.40;;
63394;SDS011;49531;-34.520;150.798;2023-08-08T13:56:08;1.55;;;1.23;;
63394;SDS011;49531;-34.520;150.798;2023-08-08T13:58:36;1.88;;;1.60;;
63394;SDS011;49531;-34.520;150.798;2023-08-08T14:01:03;2.08;;;1.40;;
63394;SDS011;49531;-34.520;150.798;2023-08-08T14:03:30;2.08;;;1.60;;
63394;SDS011;49531;-34.520;150.798;2023-08-08T14:05:57;2.03;;;1.42;;
63394;SDS011;49531;-34.520;150.798;2023-08-08T14:08:24;3.35;;;1.42;;
63394;SDS011;49531;-34.520;150.798;2023-08-08T14:10:52;2.65;;;1.60;;
63394;SDS011;49531;-34.520;150.798;2023-08-08T14:13:19;1.85;;;1.50;;